Flight Track Log - Related Links

Times and Time Zones

All times are in EDT time to prevent confusion due to time zone crossing. See the UAL4604 flight status page for this flight to view local times or setup timezone preferences in your user account.

Time Position Orientation Groundspeed Altitude Reporting Facility
EDT Latitude Longitude Course Direction KTS MPH feet Rate Location/Type
Thu 02:25:13 PM 29.9594 -95.3414 97° East 176 203 700  Level Houston Center
Thu 02:26:15 PM 29.9372 -95.2839 114° Southeast 225 259 2,900 2,216 Climbing Houston Center
Thu 02:27:04 PM 29.9336 -95.2242 94° East 229 264 4,800 2,462 Climbing Houston Center
Thu 02:28:00 PM 29.9080 -94.7622 95° East  Level FlightAware Approximate
Thu 02:28:12 PM 29.9250 -95.1286 96° East 269 310 7,700  Level Houston Center
Thu 02:29:00 PM 29.8947 -94.6185 97° East  Level FlightAware Approximate
Thu 02:29:09 PM 29.9197 -95.0506 94° East 276 318 9,400  Level Houston Center
Thu 02:30:00 PM 29.8788 -94.4752 97° East  Level FlightAware Approximate
Thu 02:30:11 PM 29.9128 -94.9550 95° East 294 338 11,600  Level Houston Center
Thu 02:31:13 PM 29.9050 -94.8483 95° East 326 375 12,600 919 Climbing Houston Center
Thu 02:32:15 PM 29.8950 -94.7264 95° East 375 432 13,500 1,306 Climbing Houston Center
Thu 02:33:17 PM 29.8844 -94.6003 95° East 394 453 15,300 1,742 Climbing Houston Center
Thu 02:34:19 PM 29.8739 -94.4517 95° East 389 448 17,100 1,440 Climbing Houston Center
Thu 02:35:22 PM 29.8628 -94.3261 96° East 395 455 18,300 1,248 Climbing Houston Center
Thu 02:36:24 PM 29.8586 -94.2011 92° East 392 451 19,700 1,355 Climbing Houston Center
Thu 02:37:26 PM 29.8542 -94.0625 92° East 400 460 21,100 1,452 Climbing Houston Center
Thu 02:38:28 PM 29.8653 -93.9331 84° East 408 470 22,700 1,500 Climbing Houston Center
Thu 02:39:30 PM 29.8778 -93.8056 84° East 405 466 24,200 1,452 Climbing Houston Center
Thu 02:40:32 PM 29.8928 -93.6775 82° East 406 467 25,700 1,645 Climbing Houston Center
Thu 02:41:34 PM 29.9072 -93.5247 84° East 403 464 27,600 1,500 Climbing Houston Center
Thu 02:42:36 PM 29.9208 -93.3989 83° East 401 461 28,800 1,152 Climbing Houston Center
Thu 02:43:39 PM 29.9336 -93.2706 83° East 406 467 30,000 1,056 Climbing Houston Center
Thu 02:44:41 PM 29.9469 -93.1422 83° East 408 470 31,000 968 Climbing Houston Center
Thu 02:45:43 PM 29.9594 -93.0092 84° East 421 484 32,000 968 Climbing Houston Center
Thu 02:46:45 PM 29.9753 -92.8503 83° East 419 482 33,000 484 Climbing Houston Center
Thu 02:47:47 PM 29.9861 -92.7092 85° East 439 505 33,000 97 Level Houston Center
Thu 02:48:49 PM 29.9989 -92.5572 84° East 466 536 33,200 677 Climbing Houston Center
Thu 02:49:51 PM 30.0106 -92.4061 85° East 475 547 34,400 864 Climbing Houston Center
Thu 02:50:54 PM 30.0233 -92.2572 84° East 471 542 35,000 288 Climbing Houston Center
Thu 02:51:56 PM 30.0392 -92.0742 84° East 477 549 35,000  Level Houston Center
Thu 02:52:58 PM 30.0475 -91.9158 86° East 493 567 35,000  Level Houston Center
Thu 02:54:00 PM 30.0603 -91.7519 85° East 513 590 35,000  Level Houston Center
Thu 02:55:02 PM 30.0733 -91.5886 85° East 513 590 35,000  Level Houston Center
Thu 02:56:04 PM 30.0847 -91.4244 85° East 513 590 35,000  Level Houston Center
Thu 02:57:06 PM 30.0953 -91.2653 86° East 504 580 35,000  Level Houston Center
Thu 02:58:09 PM 30.1094 -91.0744 85° East 499 574 35,000  Level Houston Center
Thu 02:59:11 PM 30.1233 -90.9150 84° East 500 575 35,000  Level Houston Center
Thu 03:00:13 PM 30.1647 -90.7589 73° East 506 582 35,000  Level Houston Center
Thu 03:01:15 PM 30.2042 -90.5997 74° East 514 592 35,000  Level Houston Center
Thu 03:02:17 PM 30.2414 -90.4414 75° East 513 590 35,000  Level Houston Center
Thu 03:04:21 PM 30.3258 -90.0914 74° East 512 589 35,000  Level Houston Center
Thu 03:05:24 PM 30.3633 -89.9317 75° East 513 590 35,000  Level Houston Center
Thu 03:06:26 PM 30.4039 -89.7606 75° East 514 592 35,000  Level Houston Center
Thu 03:07:28 PM 30.4422 -89.5997 75° East 515 593 35,000  Level Houston Center
Thu 03:08:30 PM 30.4806 -89.4392 74° East 515 593 35,000  Level Houston Center
Thu 03:09:32 PM 30.5161 -89.2814 75° East 508 585 35,000  Level Houston Center
Thu 03:11:36 PM 30.5947 -88.9297 75° East 515 593 35,000  Level Houston Center
Thu 03:12:38 PM 30.6319 -88.7703 75° East 516 594 35,000  Level Houston Center
Thu 03:13:41 PM 30.6672 -88.6103 76° East 514 592 35,000  Level Houston Center
Thu 03:14:43 PM 30.7042 -88.4469 75° East 513 590 35,000  Level Houston Center
Thu 03:16:00 PM 30.7674 -88.2829 49° Northeast  Level FlightAware Approximate
Thu 03:16:47 PM 30.8536 -88.1861 49° Northeast 486 559 35,000  Level Houston Center
Thu 03:17:49 PM 30.9603 -88.0439 49° Northeast 487 560 35,000  Level Houston Center
Thu 03:18:51 PM 31.0494 -87.9278 48° Northeast 483 556 35,000  Level Houston Center
Thu 03:19:53 PM 31.1375 -87.8092 49° Northeast 483 556 35,000  Level Houston Center
Thu 03:20:55 PM 31.2342 -87.6800 49° Northeast 484 557 35,000  Level Houston Center
Thu 03:21:58 PM 31.3219 -87.5600 49° Northeast 487 560 35,000  Level Houston Center
Thu 03:22:53 PM 31.4008 -87.4569 48° Northeast 488 562 35,000  Level Atlanta Center
Thu 03:23:53 PM 31.5028 -87.3219 48° Northeast 501 577 35,000  Level Atlanta Center
Thu 03:24:53 PM 31.5914 -87.1983 50° Northeast 496 571 35,000  Level Atlanta Center
Thu 03:25:53 PM 31.6822 -87.0772 49° Northeast 496 571 35,000  Level Atlanta Center
Thu 03:26:53 PM 31.7578 -86.9650 52° Northeast 491 565 35,000  Level Atlanta Center
Thu 03:27:53 PM 31.8483 -86.8406 49° Northeast 491 565 35,000  Level Atlanta Center
Thu 03:28:53 PM 31.9389 -86.7161 49° Northeast 491 565 35,000  Level Atlanta Center
Thu 03:29:53 PM 32.0419 -86.5822 48° Northeast 498 573 35,000  Level Atlanta Center
Thu 03:30:53 PM 32.1300 -86.4572 50° Northeast 498 573 35,000  Level Atlanta Center
Thu 03:31:53 PM 32.2158 -86.3342 50° Northeast 492 566 35,000  Level Atlanta Center
Thu 03:32:53 PM 32.2953 -86.2133 52° Northeast 498 573 35,000  Level Atlanta Center
Thu 03:33:53 PM 32.3789 -86.0850 52° Northeast 504 580 35,000  Level Atlanta Center
Thu 03:34:53 PM 32.4686 -85.9567 50° Northeast 504 580 35,000  Level Atlanta Center
Thu 03:35:53 PM 32.5647 -85.8133 51° Northeast 513 590 35,000  Level Atlanta Center
Thu 03:36:53 PM 32.6497 -85.6867 51° Northeast 502 578 35,000  Level Atlanta Center
Thu 03:37:53 PM 32.7350 -85.5550 52° Northeast 502 578 35,000  Level Atlanta Center
Thu 03:38:53 PM 32.8200 -85.4281 51° Northeast 502 578 35,000  Level Atlanta Center
Thu 03:39:53 PM 32.9050 -85.2981 52° Northeast 497 572 35,000  Level Atlanta Center
Thu 03:40:53 PM 32.9897 -85.1731 51° Northeast 497 572 35,000  Level Atlanta Center
Thu 03:41:53 PM 33.0742 -85.0453 52° Northeast 486 559 35,000  Level Atlanta Center
Thu 03:42:53 PM 33.1586 -84.9172 52° Northeast 486 559 35,000  Level Atlanta Center
Thu 03:43:53 PM 33.2431 -84.7864 52° Northeast 486 559 35,000  Level Atlanta Center
Thu 03:44:53 PM 33.3294 -84.6531 52° Northeast 496 571 35,000  Level Atlanta Center
Thu 03:45:53 PM 33.4114 -84.5242 53° Northeast 491 565 35,000  Level Atlanta Center
Thu 03:46:53 PM 33.4972 -84.3925 52° Northeast 496 571 35,000  Level Atlanta Center
Thu 03:47:53 PM 33.5833 -84.2583 52° Northeast 496 571 35,000  Level Atlanta Center
Thu 03:48:53 PM 33.6669 -84.1236 53° Northeast 502 578 35,000  Level Atlanta Center
Thu 03:49:53 PM 33.7544 -83.9939 51° Northeast 504 580 35,000  Level Atlanta Center
Thu 03:50:53 PM 33.8297 -83.8736 53° Northeast 504 580 35,000  Level Atlanta Center
Thu 03:51:53 PM 33.9150 -83.7408 52° Northeast 504 580 35,000  Level Atlanta Center
Thu 03:52:53 PM 34.0000 -83.6028 53° Northeast 512 589 35,000  Level Atlanta Center
Thu 03:53:53 PM 34.0872 -83.4694 52° Northeast 512 589 35,000  Level Atlanta Center
Thu 03:54:53 PM 34.1742 -83.3308 53° Northeast 512 589 35,000  Level Atlanta Center
Thu 03:55:53 PM 34.2650 -83.1817 54° Northeast 500 575 35,000  Level Atlanta Center
Thu 03:56:53 PM 34.3475 -83.0500 53° Northeast 512 589 35,000  Level Atlanta Center
Thu 03:57:53 PM 34.4339 -82.9131 53° Northeast 512 589 35,000  Level Atlanta Center
Thu 03:58:53 PM 34.5244 -82.7606 54° Northeast 512 589 35,000  Level Atlanta Center
Thu 03:59:53 PM 34.6125 -82.6203 53° Northeast 512 589 35,000  Level Atlanta Center
Thu 04:00:53 PM 34.6964 -82.4825 53° Northeast 512 589 35,000  Level Atlanta Center
Thu 04:01:53 PM 34.7844 -82.3444 52° Northeast 512 589 35,000  Level Atlanta Center
Thu 04:02:53 PM 34.8678 -82.1983 55° Northeast 512 589 35,000  Level Atlanta Center
Thu 04:03:53 PM 34.9556 -82.0672 51° Northeast 505 581 35,000  Level Atlanta Center
Thu 04:04:53 PM 35.0386 -81.9256 54° Northeast 505 581 35,000  Level Atlanta Center
Thu 04:06:00 PM 35.1044 -81.7748 58° Northeast  Level FlightAware Approximate
Thu 04:06:53 PM 35.1778 -81.6578 58° Northeast 500 575 35,000  Level Atlanta Center
Thu 04:07:53 PM 35.2522 -81.5158 57° Northeast 491 565 35,000  Level Atlanta Center
Thu 04:08:53 PM 35.3303 -81.3683 57° Northeast 496 571 35,000  Level Atlanta Center
Thu 04:09:53 PM 35.4064 -81.2206 58° Northeast 507 583 35,000  Level Atlanta Center
Thu 04:10:53 PM 35.4819 -81.0700 58° Northeast 507 583 35,000  Level Atlanta Center
Thu 04:11:53 PM 35.5619 -80.9217 56° Northeast 513 590 35,000  Level Atlanta Center
Thu 04:12:53 PM 35.6372 -80.7756 58° Northeast 513 590 35,000 -450 Level Atlanta Center
Thu 04:13:53 PM 35.7125 -80.6294 58° Northeast 508 585 34,100 -1,200 Descending Atlanta Center
Thu 04:14:53 PM 35.7878 -80.4803 58° Northeast 508 585 32,600 -1,550 Descending Atlanta Center
Thu 04:15:53 PM 35.8625 -80.3311 58° Northeast 508 585 31,000 -1,650 Descending Atlanta Center
Thu 04:16:53 PM 35.9492 -80.1631 57° Northeast 519 597 29,300 -723 Descending Atlanta Center
Thu 04:18:39 PM 36.0933 -79.8975 56° Northeast 510 587 29,000 -108 Descending Washington Center
Thu 04:19:39 PM 36.1689 -79.7628 55° Northeast 520 598 29,000  Level Washington Center
Thu 04:20:39 PM 36.2622 -79.5953 55° Northeast 526 605 29,000 -600 Level Washington Center
Thu 04:21:39 PM 36.3486 -79.4447 55° Northeast 526 605 27,800 -1,750 Descending Washington Center
Thu 04:22:39 PM 36.4172 -79.3167 56° Northeast 521 600 25,500 -2,350 Descending Washington Center
Thu 04:23:39 PM 36.4925 -79.1806 55° Northeast 496 571 23,100 -2,650 Descending Washington Center
Thu 04:24:39 PM 36.5736 -79.0422 54° Northeast 468 539 20,200 -2,150 Descending Washington Center
Thu 04:25:39 PM 36.6461 -78.9133 55° Northeast 456 525 18,800 -1,100 Descending Washington Center
Thu 04:26:39 PM 36.7167 -78.7789 57° Northeast 462 532 18,000 -600 Descending Washington Center
Thu 04:27:39 PM 36.7692 -78.6825 56° Northeast 421 484 17,600 -600 Descending Washington Center
Thu 04:28:39 PM 36.8283 -78.5761 55° Northeast 389 448 16,800 -1,100 Descending Washington Center
Thu 04:29:39 PM 36.8850 -78.4717 56° Northeast 372 428 15,400 -1,850 Descending Washington Center
Thu 04:30:39 PM 36.9461 -78.3622 55° Northeast 357 411 13,100 -1,750 Descending Washington Center
Thu 04:31:39 PM 36.9983 -78.2653 56° Northeast 345 397 11,900 -1,200 Descending Washington Center
Thu 04:32:39 PM 37.0503 -78.1761 54° Northeast 324 373 10,700 -950 Descending Washington Center
Thu 04:33:39 PM 37.0897 -78.0914 60° Northeast 319 367 10,000 -350 Descending Washington Center
Thu 04:34:39 PM 37.1394 -78.0019 55° Northeast 319 367 10,000  Level Washington Center
Thu 04:35:39 PM 37.1850 -77.9147 57° Northeast 314 361 10,000 -350 Level Washington Center
Thu 04:36:39 PM 37.2325 -77.8300 55° Northeast 308 354 9,300 -550 Descending Washington Center
Thu 04:37:39 PM 37.2717 -77.7425 61° Northeast 277 319 8,900 -700 Descending Washington Center
Thu 04:38:39 PM 37.2733 -77.6511 89° East 250 288 7,900 -1,000 Descending Washington Center
Thu 04:39:39 PM 37.2664 -77.5647 96° East 250 288 6,900 -950 Descending Washington Center
Thu 04:40:39 PM 37.2447 -77.4808 108° East 250 288 6,000 -950 Descending Washington Center
Thu 04:41:39 PM 37.2439 -77.4025 91° East 238 274 5,000 -1,016 Descending Washington Center
Thu 04:43:48 PM 37.3000 -77.2500 65° Northeast 219 252 2,800 -952 Descending Potomac TRACON
Thu 04:44:48 PM 37.3500 -77.2000 38° Northeast 211 243 2,000 -347 Descending Potomac TRACON
Thu 04:45:49 PM 37.4000 -77.2333 332° Northwest 207 238 2,100 98 Climbing Potomac TRACON

Login

Don't have an account? Register now (free) for customized features, flight alerts, and more!